Página principal
METAR-TAF:

METAR-TAF

Aeroportos :

Yakutsk, Rússia

Aeroporto de Yakutsk

latitude: 62-01N, longitude: 129-43E, altura: 103 m

Observação actual do tempo

O boletim foi feito há 17 minutos, às 23:30 UTC
Vento calmo
Temperatura -35°C
Humidade 66%
Pressão 1018 hPa
Visibilidade 10 km ou mais
sem nuvens abaixo de 1500 metros e sem cumulonimbus

METAR: UEEE 182330Z 00000MPS CAVOK M35/M39 Q1018 R23L/490150 NOSIG RMK QFE755

Hora: 08:47 (23:47 UTC)

Previsão

O boletim foi feito há 47 minutos, às 23:00 UTC
Previsão válida de 19 às 00 UTC a 20 às 06 UTC
Vento 2 kt com direcção variável
Visibilidade 10 km ou mais
Encobertoa uma altura de 7000 ft
neve fraca
Temporariamente
de 19 às 00 UTC a 19 às 02 UTC
Visibilidade: 0700 m
nevoeiro

TAF: UEEE 182300Z 1900/2006 VRB01MPS 9999 -SN OVC070 TEMPO 1900/1902 0700 FG

Observações e previsões do tempo de mais de 4000 aeroportos (mensagens METAR e TAF).

As estações disponíveis são os pontos amarelos e vermelhos sobre o mapa.

Mova o rato sobre o mapa para ver o nome da estação.

Depois clique no ponto para visualizar as observações e previsões meteorológicas.

Para alterar o mapa : clique nos botões verdes com uma cruz preta para aumentar o zoom; no botão verde com uma pitada de zoom; ou nas setas verdes para mapas adjacentes.


METAR-TAF: